AEE56N EDDM-LGAV
Flight info
| Callsign | AEE56N |
|---|---|
| Flight time | N/A |
| Altitude | 37000 |
| Route | VAVOR M867 RADIZ DCT REKTI DCT NEMEK DCT ELTIB DCT PINDO DCT PIKOS UL607 XORKI |
| Aircraft | A320/M-SDE3FGHIRWY/LB1 |
Departure
| Time | 2026-05-07 08:03 |
|---|---|
| Airport | Munich Airport (EDDM) |
Arrival
| Time | N/A |
|---|---|
| Airport | Athens Eleftherios Venizelos International Airport (LGAV) |
| Time | Latitude | Longitude | Altitude | Speed | Heading |
|---|---|---|---|---|---|
| 2026-05-07 07:43 | 48.35465 | 11.80014 | 1481 ft | 0 kts | 263° |
| 2026-05-07 07:53 | 48.35465 | 11.80017 | 1485 ft | 2 kts | 263° |
| 2026-05-07 07:53 | 48.35468 | 11.80055 | 1485 ft | 4 kts | 263° |
| 2026-05-07 07:54 | 48.35471 | 11.80088 | 1482 ft | 4 kts | 250° |
| 2026-05-07 07:54 | 48.35485 | 11.80117 | 1471 ft | 4 kts | 202° |
| 2026-05-07 07:54 | 48.35510 | 11.80123 | 1471 ft | 3 kts | 173° |
| 2026-05-07 07:54 | 48.35529 | 11.80119 | 1475 ft | 0 kts | 173° |
| 2026-05-07 07:56 | 48.35518 | 11.80121 | 1477 ft | 2 kts | 173° |
| 2026-05-07 07:57 | 48.35495 | 11.80125 | 1474 ft | 4 kts | 173° |
| 2026-05-07 07:57 | 48.35461 | 11.80131 | 1481 ft | 6 kts | 173° |
| 2026-05-07 07:57 | 48.35414 | 11.80139 | 1475 ft | 8 kts | 171° |
| 2026-05-07 07:58 | 48.35287 | 11.80173 | 1474 ft | 11 kts | 173° |
| 2026-05-07 07:58 | 48.35207 | 11.80186 | 1482 ft | 12 kts | 174° |
| 2026-05-07 07:58 | 48.35141 | 11.80166 | 1473 ft | 10 kts | 233° |
| 2026-05-07 07:58 | 48.35128 | 11.80054 | 1479 ft | 12 kts | 263° |
| 2026-05-07 07:59 | 48.35118 | 11.79924 | 1485 ft | 13 kts | 264° |
| 2026-05-07 07:59 | 48.35107 | 11.79777 | 1485 ft | 15 kts | 263° |
| 2026-05-07 07:59 | 48.35071 | 11.79662 | 1477 ft | 13 kts | 199° |
| 2026-05-07 07:59 | 48.34990 | 11.79671 | 1471 ft | 11 kts | 173° |
| 2026-05-07 08:00 | 48.34907 | 11.79685 | 1485 ft | 13 kts | 174° |
| 2026-05-07 08:00 | 48.34812 | 11.79701 | 1481 ft | 15 kts | 173° |
| 2026-05-07 08:00 | 48.34720 | 11.79711 | 1485 ft | 12 kts | 192° |
| 2026-05-07 08:00 | 48.34659 | 11.79613 | 1478 ft | 14 kts | 232° |
| 2026-05-07 08:01 | 48.34599 | 11.79491 | 1475 ft | 15 kts | 234° |
| 2026-05-07 08:01 | 48.34564 | 11.79421 | 1475 ft | 8 kts | 233° |
| 2026-05-07 08:01 | 48.34528 | 11.79349 | 1481 ft | 10 kts | 233° |
| 2026-05-07 08:01 | 48.34484 | 11.79260 | 1471 ft | 12 kts | 234° |
| 2026-05-07 08:02 | 48.34432 | 11.79157 | 1480 ft | 13 kts | 227° |
| 2026-05-07 08:02 | 48.34373 | 11.79062 | 1482 ft | 13 kts | 263° |
| 2026-05-07 08:02 | 48.34363 | 11.78935 | 1477 ft | 17 kts | 263° |
| 2026-05-07 08:02 | 48.34327 | 11.78464 | 1485 ft | 77 kts | 263° |
| 2026-05-07 08:03 | 48.34244 | 11.77393 | 1486 ft | 126 kts | 263° |
| 2026-05-07 08:03 | 48.34125 | 11.75916 | 1706 ft | 149 kts | 263° |
| 2026-05-07 08:03 | 48.33996 | 11.74341 | 2344 ft | 152 kts | 264° |
| 2026-05-07 08:03 | 48.33877 | 11.72765 | 2980 ft | 154 kts | 263° |
| 2026-05-07 08:04 | 48.33631 | 11.71141 | 3360 ft | 170 kts | 241° |
| 2026-05-07 08:04 | 48.32648 | 11.70033 | 3617 ft | 198 kts | 199° |
| 2026-05-07 08:04 | 48.31183 | 11.69872 | 4050 ft | 218 kts | 182° |
| 2026-05-07 08:04 | 48.29661 | 11.70053 | 4924 ft | 220 kts | 179° |
| 2026-05-07 08:05 | 48.28158 | 11.70732 | 5585 ft | 241 kts | 154° |
| 2026-05-07 08:05 | 48.26758 | 11.72373 | 5950 ft | 268 kts | 144° |
| 2026-05-07 08:05 | 48.25298 | 11.74250 | 6523 ft | 282 kts | 143° |
| 2026-05-07 08:05 | 48.23802 | 11.76197 | 7279 ft | 286 kts | 143° |
| 2026-05-07 08:06 | 48.21081 | 11.79746 | 8780 ft | 291 kts | 143° |
| 2026-05-07 08:06 | 48.19541 | 11.81738 | 9610 ft | 294 kts | 144° |
| 2026-05-07 08:06 | 48.17982 | 11.83750 | 10328 ft | 300 kts | 144° |
| 2026-05-07 08:07 | 48.16356 | 11.85834 | 10553 ft | 323 kts | 143° |
| 2026-05-07 08:07 | 48.14564 | 11.88123 | 10736 ft | 345 kts | 143° |
| 2026-05-07 08:07 | 48.12733 | 11.90464 | 11203 ft | 354 kts | 143° |
| 2026-05-07 08:07 | 48.10846 | 11.92884 | 11838 ft | 358 kts | 143° |
| 2026-05-07 08:08 | 48.08943 | 11.95329 | 12502 ft | 361 kts | 143° |
| 2026-05-07 08:08 | 48.07033 | 11.97781 | 13172 ft | 364 kts | 143° |
| 2026-05-07 08:08 | 48.05102 | 12.00260 | 13840 ft | 366 kts | 142° |
| 2026-05-07 08:08 | 48.03161 | 12.02741 | 14474 ft | 368 kts | 142° |
| 2026-05-07 08:09 | 48.01206 | 12.05232 | 15070 ft | 370 kts | 142° |
| 2026-05-07 08:09 | 47.99240 | 12.07731 | 15664 ft | 372 kts | 142° |
| 2026-05-07 08:09 | 47.97263 | 12.10243 | 16211 ft | 374 kts | 142° |
| 2026-05-07 08:09 | 47.95292 | 12.12746 | 16756 ft | 378 kts | 142° |
| 2026-05-07 08:10 | 47.93283 | 12.15291 | 17310 ft | 381 kts | 142° |
| 2026-05-07 08:10 | 47.91256 | 12.17861 | 17879 ft | 384 kts | 142° |
| 2026-05-07 08:10 | 47.89210 | 12.20456 | 18398 ft | 387 kts | 142° |
| 2026-05-07 08:10 | 47.87153 | 12.23060 | 18931 ft | 390 kts | 143° |
| 2026-05-07 08:11 | 47.85078 | 12.25682 | 19496 ft | 392 kts | 143° |
| 2026-05-07 08:11 | 47.82986 | 12.28319 | 20032 ft | 394 kts | 143° |
| 2026-05-07 08:11 | 47.80885 | 12.30964 | 20539 ft | 397 kts | 143° |
| 2026-05-07 08:11 | 47.78790 | 12.33602 | 21024 ft | 399 kts | 143° |
| 2026-05-07 08:12 | 47.76666 | 12.36272 | 21499 ft | 401 kts | 143° |
| 2026-05-07 08:12 | 47.74526 | 12.38959 | 21950 ft | 404 kts | 143° |
| 2026-05-07 08:12 | 47.72373 | 12.41661 | 22402 ft | 406 kts | 144° |
| 2026-05-07 08:12 | 47.70351 | 12.44193 | 22824 ft | 408 kts | 144° |
| 2026-05-07 08:13 | 47.68178 | 12.46913 | 23263 ft | 410 kts | 144° |
| 2026-05-07 08:13 | 47.65990 | 12.49646 | 23699 ft | 412 kts | 144° |
| 2026-05-07 08:13 | 47.64043 | 12.52083 | 24003 ft | 414 kts | 144° |
| 2026-05-07 08:13 | 47.61854 | 12.54810 | 24285 ft | 418 kts | 144° |
| 2026-05-07 08:14 | 47.59695 | 12.57497 | 24194 ft | 386 kts | 144° |
| 2026-05-07 08:14 | 47.57717 | 12.60077 | 23754 ft | 377 kts | 143° |
| 2026-05-07 08:14 | 47.55791 | 12.62689 | 23242 ft | 373 kts | 141° |
| 2026-05-07 08:14 | 47.53895 | 12.65455 | 22743 ft | 399 kts | 138° |
| 2026-05-07 08:15 | 47.51958 | 12.68651 | 22284 ft | 434 kts | 134° |
| 2026-05-07 08:15 | 47.49998 | 12.72254 | 21832 ft | 463 kts | 131° |
| 2026-05-07 08:15 | 47.48055 | 12.76201 | 21744 ft | 481 kts | 128° |
| 2026-05-07 08:15 | 47.46230 | 12.80305 | 22042 ft | 487 kts | 126° |